Terminal Aerodrome Forecast
Issued by NWS Wilmington, OH

Current Version | Previous Version | Graphics & Text | Print | Product List | Glossary On
Versions: 1 2 3 4 5 6 7 8 9 10 11 12 13 14 15 16
000
FTUS41 KILN 211700
TAFILN
TAF
KILN 211726Z 2118/2218 32010KT P6SM OVC040
     FM220000 29008KT P6SM SCT040
     FM220400 24005KT P6SM SKC
     FM221400 28008KT P6SM SCT040=

USA.gov is the U.S. government's official web portal to all federal, state and local government web resources and services.